createdAt,value
2023-03-02T00:01:03.687Z,54.78
2023-03-02T00:03:07.405Z,43.28
2023-03-02T00:05:14.833Z,50.50
2023-03-02T00:07:22.262Z,48.28
2023-03-02T00:09:25.248Z,58.72
2023-03-02T00:11:28.161Z,50.92
2023-03-02T00:13:31.844Z,45.25
2023-03-02T00:15:34.448Z,46.45
2023-03-02T00:17:37.243Z,48.05
2023-03-02T00:19:39.985Z,52.40
2023-03-02T00:21:42.666Z,51.95
2023-03-02T00:23:46.942Z,50.33
2023-03-02T00:25:49.518Z,54.45
2023-03-02T00:27:52.130Z,49.75
2023-03-02T00:29:54.718Z,46.50
2023-03-02T00:31:57.314Z,52.83
2023-03-02T00:34:00.020Z,52.67
2023-03-02T00:36:02.906Z,51.22
2023-03-02T00:38:05.600Z,57.05
2023-03-02T00:40:11.025Z,52.50
2023-03-02T00:42:13.639Z,49.85
2023-03-02T00:44:17.621Z,46.45
2023-03-02T00:46:23.204Z,49.03
2023-03-02T00:48:25.783Z,43.25
2023-03-02T00:50:28.413Z,51.72
2023-03-02T00:52:31.308Z,47.83
2023-03-02T00:54:33.877Z,46.45
2023-03-02T00:56:37.814Z,49.28
2023-03-02T00:58:40.471Z,50.85
2023-03-02T01:00:43.553Z,49.60
2023-03-02T01:02:46.238Z,52.10
2023-03-02T01:04:49.145Z,51.67
2023-03-02T01:06:51.745Z,49.53
2023-03-02T01:08:54.292Z,54.95
2023-03-02T01:10:56.926Z,50.92
2023-03-02T01:13:01.001Z,49.83
2023-03-02T01:15:04.855Z,50.80
2023-03-02T01:17:08.752Z,52.67
2023-03-02T01:19:11.904Z,56.53
2023-03-02T01:21:16.771Z,47.25
2023-03-02T01:23:19.329Z,48.25
2023-03-02T01:25:21.944Z,50.67
2023-03-02T01:27:24.524Z,52.22
2023-03-02T01:29:28.729Z,48.67
2023-03-02T01:31:32.208Z,59.03
2023-03-02T01:33:34.969Z,54.53
2023-03-02T01:35:37.560Z,51.17
2023-03-02T01:37:40.215Z,57.72
2023-03-02T01:39:42.788Z,56.03
2023-03-02T01:41:46.227Z,51.50
2023-03-02T01:43:48.872Z,52.90
2023-03-02T01:45:55.224Z,49.70
2023-03-02T01:47:57.900Z,51.13
2023-03-02T01:50:04.885Z,56.10
2023-03-02T01:52:12.174Z,54.85
2023-03-02T01:54:23.207Z,49.97
2023-03-02T01:56:30.538Z,52.13
2023-03-02T01:58:36.950Z,53.22
2023-03-02T02:00:41.080Z,50.83
2023-03-02T02:02:45.206Z,56.22
2023-03-02T02:04:49.670Z,50.85
2023-03-02T02:06:56.459Z,50.97
2023-03-02T02:08:59.632Z,49.33
2023-03-02T02:11:02.315Z,52.15
2023-03-02T02:13:04.939Z,54.70
2023-03-02T02:15:10.153Z,51.90
2023-03-02T02:17:13.861Z,48.13
2023-03-02T02:19:35.251Z,59.22
2023-03-02T02:21:37.829Z,56.13
2023-03-02T02:23:46.318Z,53.97
2023-03-02T02:26:03.677Z,54.92
2023-03-02T02:28:14.204Z,52.17
2023-03-02T02:30:17.862Z,49.10
2023-03-02T02:32:26.401Z,49.30
2023-03-02T02:34:33.226Z,52.72
2023-03-02T02:36:41.006Z,53.97
2023-03-02T02:38:47.905Z,54.88
2023-03-02T02:40:54.574Z,53.55
2023-03-02T02:42:58.533Z,51.40
2023-03-02T02:45:05.120Z,55.40
2023-03-02T02:47:18.197Z,51.75
2023-03-02T02:49:33.336Z,51.90
2023-03-02T02:51:36.219Z,60.63
2023-03-02T02:53:44.142Z,47.60
2023-03-02T02:55:48.298Z,52.78
2023-03-02T02:57:52.698Z,52.72
2023-03-02T02:59:59.768Z,53.33
2023-03-02T03:02:02.505Z,52.88
2023-03-02T03:04:07.190Z,53.92
2023-03-02T03:06:17.613Z,54.00
2023-03-02T03:08:55.849Z,50.95
2023-03-02T03:10:59.706Z,55.92
2023-03-02T03:13:03.070Z,48.40
2023-03-02T03:15:08.792Z,54.05
2023-03-02T03:17:13.762Z,52.40
2023-03-02T03:19:20.812Z,49.58
2023-03-02T03:21:23.403Z,48.78
2023-03-02T03:23:26.020Z,54.83
2023-03-02T03:25:28.647Z,52.97
2023-03-02T03:27:31.282Z,53.17
2023-03-02T03:29:35.159Z,52.75
2023-03-02T03:31:39.335Z,56.33
2023-03-02T03:33:41.903Z,50.03
2023-03-02T03:35:44.529Z,53.42
2023-03-02T03:37:48.467Z,53.70
2023-03-02T03:39:51.274Z,60.55
2023-03-02T03:41:53.809Z,50.78
2023-03-02T03:43:56.673Z,49.92
2023-03-02T03:45:59.323Z,52.33
2023-03-02T03:48:03.282Z,55.03
2023-03-02T03:50:09.410Z,51.47
2023-03-02T03:52:13.841Z,53.35
2023-03-02T03:54:16.463Z,53.40
2023-03-02T03:56:19.050Z,49.05
2023-03-02T03:58:21.742Z,51.05
2023-03-02T04:00:24.881Z,51.90
2023-03-02T04:02:27.603Z,50.95
2023-03-02T04:04:35.705Z,48.90
2023-03-02T04:06:38.305Z,50.63
2023-03-02T04:08:40.892Z,49.47
2023-03-02T04:10:43.482Z,53.65
2023-03-02T04:12:46.276Z,52.22
2023-03-02T04:14:48.913Z,55.50
2023-03-02T04:16:52.196Z,55.00
2023-03-02T04:18:55.202Z,51.55
2023-03-02T04:20:59.146Z,52.85
2023-03-02T04:23:01.729Z,54.33
2023-03-02T04:25:05.108Z,48.10
2023-03-02T04:27:07.680Z,50.63
2023-03-02T04:29:10.721Z,51.45
2023-03-02T04:31:13.328Z,47.22
2023-03-02T04:33:15.923Z,51.35
2023-03-02T04:35:19.033Z,50.78
2023-03-02T04:37:22.944Z,54.47
2023-03-02T04:39:25.784Z,53.60
2023-03-02T04:41:28.432Z,51.67
2023-03-02T04:43:32.193Z,49.00
2023-03-02T04:45:35.161Z,55.25
2023-03-02T04:47:37.701Z,47.53
2023-03-02T04:49:40.376Z,55.97
2023-03-02T04:51:45.719Z,53.78
2023-03-02T04:53:49.617Z,49.92
2023-03-02T04:55:52.170Z,55.53
2023-03-02T04:57:54.781Z,52.60
2023-03-02T04:59:57.371Z,52.00
2023-03-02T05:02:01.537Z,50.95
2023-03-02T05:04:04.552Z,50.60
2023-03-02T05:06:07.996Z,52.53
2023-03-02T05:08:10.540Z,51.20
2023-03-02T05:10:15.917Z,53.35
2023-03-02T05:12:19.199Z,52.83
2023-03-02T05:14:22.561Z,53.83
2023-03-02T05:16:26.347Z,54.28
2023-03-02T05:18:29.094Z,51.75
2023-03-02T05:20:31.873Z,52.63
2023-03-02T05:22:34.455Z,49.10
2023-03-02T05:24:37.383Z,52.65
2023-03-02T05:26:41.702Z,49.03
2023-03-02T05:28:44.962Z,48.40
2023-03-02T05:30:48.269Z,54.53
2023-03-02T05:32:51.367Z,55.10
2023-03-02T05:34:53.949Z,51.88
2023-03-02T05:36:58.131Z,53.25
2023-03-02T05:39:00.802Z,55.97
2023-03-02T05:41:03.517Z,50.83
2023-03-02T05:43:07.931Z,49.47
2023-03-02T05:45:18.010Z,51.65
2023-03-02T05:47:20.581Z,50.80
2023-03-02T05:49:23.127Z,53.28
2023-03-02T05:51:25.722Z,55.17
2023-03-02T05:53:28.441Z,55.15
2023-03-02T05:55:31.584Z,55.40
2023-03-02T05:57:34.574Z,53.17
2023-03-02T05:59:38.530Z,50.55
2023-03-02T06:01:41.263Z,53.28
2023-03-02T06:03:44.208Z,52.00
2023-03-02T06:05:52.351Z,51.97
2023-03-02T06:07:57.196Z,52.17
2023-03-02T06:09:59.812Z,57.08
2023-03-02T06:12:02.376Z,51.72
2023-03-02T06:14:04.967Z,54.22
2023-03-02T06:16:09.709Z,52.40
2023-03-02T06:18:12.676Z,50.55
2023-03-02T06:20:18.542Z,51.80
2023-03-02T06:22:21.154Z,59.20
2023-03-02T06:24:23.786Z,52.40
2023-03-02T06:26:26.348Z,52.95
2023-03-02T06:28:28.914Z,54.38
2023-03-02T06:30:31.471Z,49.33
2023-03-02T06:32:35.603Z,54.13
2023-03-02T06:34:38.185Z,54.60
2023-03-02T06:36:40.888Z,56.30
2023-03-02T06:38:43.513Z,54.40
2023-03-02T06:40:46.151Z,52.25
2023-03-02T06:42:48.737Z,55.60
2023-03-02T06:44:51.718Z,51.85
2023-03-02T06:46:54.258Z,60.35
2023-03-02T06:48:58.178Z,56.55
2023-03-02T06:51:00.869Z,63.90
2023-03-02T06:53:03.699Z,57.95
2023-03-02T06:55:07.442Z,54.13
2023-03-02T06:57:10.002Z,51.85
2023-03-02T06:59:15.143Z,54.13
2023-03-02T07:01:17.889Z,58.78
2023-03-02T07:03:20.557Z,60.03
2023-03-02T07:05:24.978Z,62.63
2023-03-02T07:07:27.634Z,57.78
2023-03-02T07:09:33.709Z,53.03
2023-03-02T07:11:36.253Z,56.20
2023-03-02T07:13:39.419Z,53.75
2023-03-02T07:15:42.012Z,56.33
2023-03-02T07:17:46.019Z,59.42
2023-03-02T07:19:48.589Z,55.58
2023-03-02T07:21:52.456Z,54.70
2023-03-02T07:23:55.066Z,53.63
2023-03-02T07:25:57.878Z,55.67
2023-03-02T07:28:00.469Z,51.90
2023-03-02T07:30:03.196Z,56.00
2023-03-02T07:32:06.916Z,56.22
2023-03-02T07:34:09.537Z,59.15
2023-03-02T07:36:12.141Z,51.20
2023-03-02T07:38:16.139Z,53.75
2023-03-02T07:40:19.076Z,54.10
2023-03-02T07:42:21.610Z,52.60
2023-03-02T07:44:24.218Z,55.03
2023-03-02T07:46:26.836Z,54.05
2023-03-02T07:48:29.522Z,48.38
2023-03-02T07:50:32.665Z,61.22
2023-03-02T07:52:35.475Z,56.67
2023-03-02T07:54:39.430Z,51.67
2023-03-02T07:56:42.346Z,54.05
2023-03-02T07:58:45.400Z,49.85
2023-03-02T08:00:48.233Z,49.03
2023-03-02T08:02:50.947Z,54.38
2023-03-02T08:04:53.645Z,50.42
2023-03-02T08:06:56.248Z,52.10
2023-03-02T08:09:00.888Z,56.70
2023-03-02T08:11:09.712Z,58.50
2023-03-02T08:13:12.271Z,55.10
2023-03-02T08:15:15.510Z,54.65
2023-03-02T08:17:18.074Z,55.10
2023-03-02T08:19:21.086Z,59.40
2023-03-02T08:21:26.289Z,51.60
2023-03-02T08:23:29.088Z,64.20
2023-03-02T08:25:31.668Z,56.88
2023-03-02T08:27:35.556Z,54.28
2023-03-02T08:29:38.170Z,49.67
2023-03-02T08:31:40.847Z,53.30
2023-03-02T08:33:43.571Z,58.08
2023-03-02T08:35:46.179Z,50.97
2023-03-02T08:37:48.836Z,56.08
2023-03-02T08:39:51.775Z,51.55
2023-03-02T08:41:55.060Z,52.80
2023-03-02T08:43:58.989Z,48.60
2023-03-02T08:46:02.004Z,49.50
2023-03-02T08:48:04.953Z,50.28
2023-03-02T08:50:08.434Z,48.60
2023-03-02T08:52:11.016Z,53.25
2023-03-02T08:54:14.184Z,52.22
2023-03-02T08:56:18.756Z,50.30
2023-03-02T08:58:21.531Z,49.90
2023-03-02T09:00:25.681Z,47.20
2023-03-02T09:02:28.234Z,47.63
2023-03-02T09:04:30.876Z,50.15
2023-03-02T09:06:35.812Z,44.05
2023-03-02T09:08:38.486Z,50.40
2023-03-02T09:10:41.113Z,54.20
2023-03-02T09:12:43.673Z,56.45
2023-03-02T09:14:46.231Z,48.75
2023-03-02T09:16:50.222Z,50.10
2023-03-02T09:18:53.264Z,46.63
2023-03-02T09:20:56.882Z,55.58
2023-03-02T09:22:59.490Z,49.25
2023-03-02T09:25:02.124Z,45.38
2023-03-02T09:27:04.863Z,45.95
2023-03-02T09:29:08.137Z,51.63
2023-03-02T09:31:10.938Z,51.83
2023-03-02T09:33:14.837Z,48.03
2023-03-02T09:35:17.449Z,46.45
2023-03-02T09:37:19.989Z,48.28
2023-03-02T09:39:22.529Z,47.50
2023-03-02T09:42:11.299Z,44.58
2023-03-02T09:44:38.613Z,51.08
2023-03-02T09:46:47.689Z,50.03
2023-03-02T09:49:05.961Z,49.40
2023-03-02T09:51:32.351Z,47.83
2023-03-02T09:53:45.156Z,50.67
2023-03-02T09:55:53.484Z,47.58
2023-03-02T09:57:56.774Z,50.25
2023-03-02T10:00:12.925Z,51.10
2023-03-02T10:02:26.625Z,50.80
2023-03-02T10:04:34.462Z,49.67
2023-03-02T10:06:37.064Z,57.10
2023-03-02T10:08:42.814Z,55.15
2023-03-02T10:10:47.457Z,50.90
2023-03-02T10:13:01.095Z,51.40
2023-03-02T10:15:09.495Z,51.00
2023-03-02T10:17:29.550Z,52.78
2023-03-02T10:19:42.522Z,55.15
2023-03-02T10:21:48.295Z,49.95
2023-03-02T10:23:57.616Z,50.30
2023-03-02T10:26:07.878Z,51.05
2023-03-02T10:28:18.258Z,51.03
2023-03-02T10:30:27.798Z,52.88
2023-03-02T10:32:33.797Z,54.78
2023-03-02T10:34:39.623Z,53.75
2023-03-02T10:36:44.878Z,56.58
2023-03-02T10:38:48.105Z,56.35
2023-03-02T10:40:53.222Z,52.88
2023-03-02T10:42:57.496Z,51.22
2023-03-02T10:45:08.630Z,50.25
2023-03-02T10:47:21.030Z,47.55
2023-03-02T10:49:31.918Z,54.58
2023-03-02T10:51:36.272Z,60.58
2023-03-02T10:53:38.830Z,50.30
2023-03-02T10:55:46.362Z,54.15
2023-03-02T10:58:03.472Z,47.45
2023-03-02T11:00:16.277Z,54.30
2023-03-02T11:02:23.441Z,55.22
2023-03-02T11:04:27.256Z,52.42
2023-03-02T11:06:31.384Z,55.08
2023-03-02T11:08:35.559Z,50.92
2023-03-02T11:10:40.106Z,52.80
2023-03-02T11:12:47.554Z,49.22
2023-03-02T11:14:50.115Z,51.72
2023-03-02T11:16:53.688Z,51.30
2023-03-02T11:18:59.815Z,53.78
2023-03-02T11:21:05.610Z,52.15
2023-03-02T11:23:23.451Z,52.65
2023-03-02T11:25:32.863Z,50.80
2023-03-02T11:27:40.146Z,52.15
2023-03-02T11:29:46.555Z,47.42
2023-03-02T11:31:52.028Z,52.17
2023-03-02T11:34:36.344Z,48.72
2023-03-02T11:36:46.366Z,56.03
2023-03-02T11:38:53.735Z,52.25
2023-03-02T11:41:01.423Z,50.78
2023-03-02T11:43:05.558Z,51.25
2023-03-02T11:45:20.020Z,49.15
2023-03-02T11:47:24.024Z,58.00
2023-03-02T11:49:36.532Z,52.17
2023-03-02T11:51:53.255Z,50.30
2023-03-02T11:54:03.686Z,50.97
2023-03-02T11:56:09.009Z,55.83
2023-03-02T11:58:18.009Z,50.53
2023-03-02T12:00:31.510Z,54.13
2023-03-02T12:02:34.092Z,52.30
2023-03-02T12:04:39.061Z,47.05
2023-03-02T12:06:44.062Z,51.92
2023-03-02T12:08:47.592Z,49.78
2023-03-02T12:10:58.369Z,51.03
2023-03-02T12:13:13.840Z,50.95
2023-03-02T12:15:29.565Z,51.03
2023-03-02T12:17:35.144Z,48.60
2023-03-02T12:19:43.652Z,46.35
2023-03-02T12:21:58.480Z,53.40
2023-03-02T12:24:03.890Z,51.50
2023-03-02T12:26:10.449Z,55.78
2023-03-02T12:28:30.169Z,53.58
2023-03-02T12:30:32.836Z,46.05
2023-03-02T12:32:35.466Z,47.72
2023-03-02T12:34:40.214Z,51.42
2023-03-02T12:36:45.008Z,55.65
2023-03-02T12:38:58.988Z,46.20
2023-03-02T12:41:17.530Z,50.03
2023-03-02T12:43:33.147Z,52.08
2023-03-02T12:45:50.551Z,53.58
2023-03-02T12:48:02.755Z,49.65
2023-03-02T12:50:17.081Z,49.00
2023-03-02T12:52:24.231Z,46.13
2023-03-02T12:54:28.603Z,56.15
2023-03-02T12:56:31.233Z,47.25
2023-03-02T12:58:35.494Z,49.45
2023-03-02T13:00:38.101Z,45.90
2023-03-02T13:02:48.162Z,45.80
2023-03-02T13:04:55.323Z,47.33
2023-03-02T13:06:57.993Z,50.15
2023-03-02T13:09:00.977Z,51.85
2023-03-02T13:11:04.653Z,54.88
2023-03-02T13:13:17.389Z,51.35
2023-03-02T13:15:21.521Z,49.67
2023-03-02T13:17:26.900Z,49.50
2023-03-02T13:19:30.648Z,46.05
2023-03-02T13:21:35.665Z,50.08
2023-03-02T13:23:46.114Z,48.58
2023-03-02T13:25:50.651Z,47.53
2023-03-02T13:27:55.840Z,45.83
2023-03-02T13:30:10.183Z,51.28
2023-03-02T13:32:22.702Z,46.88
2023-03-02T13:34:27.755Z,53.30
2023-03-02T13:36:35.386Z,44.67
2023-03-02T13:38:39.288Z,46.25
2023-03-02T13:40:44.743Z,47.08
2023-03-02T13:42:48.335Z,45.67
2023-03-02T13:44:50.934Z,56.05
2023-03-02T13:46:53.485Z,53.90
2023-03-02T13:49:13.966Z,48.15
2023-03-02T13:51:18.403Z,47.42
2023-03-02T13:53:21.523Z,47.80
2023-03-02T13:55:25.140Z,50.45
2023-03-02T13:57:32.216Z,46.63
2023-03-02T13:59:36.434Z,49.30
2023-03-02T14:01:41.335Z,52.17
2023-03-02T14:03:43.949Z,44.92
2023-03-02T14:05:47.876Z,48.03
2023-03-02T14:07:50.804Z,48.67
2023-03-02T14:09:53.394Z,53.10
2023-03-02T14:11:57.001Z,48.78
2023-03-02T14:13:59.637Z,43.70
2023-03-02T14:16:02.272Z,53.05
2023-03-02T14:18:10.516Z,43.90
2023-03-02T14:20:15.745Z,50.53
2023-03-02T14:22:20.416Z,49.03
2023-03-02T14:24:22.983Z,43.22
2023-03-02T14:26:33.415Z,45.90
2023-03-02T14:28:36.325Z,47.50
2023-03-02T14:30:38.971Z,44.58
2023-03-02T14:32:41.621Z,46.92
2023-03-02T14:34:44.442Z,45.03
2023-03-02T14:36:50.094Z,46.00
2023-03-02T14:38:54.368Z,46.20
2023-03-02T14:40:57.665Z,42.72
2023-03-02T14:43:00.298Z,47.25
2023-03-02T14:45:02.875Z,50.40
2023-03-02T14:47:05.533Z,47.22
2023-03-02T14:49:08.112Z,47.95
2023-03-02T14:51:20.735Z,50.67
2023-03-02T14:53:29.069Z,47.17
2023-03-02T14:55:33.938Z,42.65
2023-03-02T14:57:38.494Z,46.47
2023-03-02T14:59:41.162Z,43.22
2023-03-02T15:01:44.581Z,47.75
2023-03-02T15:03:47.567Z,44.05
2023-03-02T15:06:00.792Z,47.25
2023-03-02T15:08:04.276Z,45.33
2023-03-02T15:10:08.219Z,49.70
2023-03-02T15:12:12.475Z,44.88
2023-03-02T15:14:15.073Z,51.05
2023-03-02T15:16:17.787Z,44.22
2023-03-02T15:18:20.402Z,44.10
2023-03-02T15:20:23.046Z,44.97
2023-03-02T15:22:25.614Z,46.72
2023-03-02T15:24:28.216Z,43.40
2023-03-02T15:26:30.793Z,45.53
2023-03-02T15:28:34.744Z,49.50
2023-03-02T15:30:37.305Z,46.70
2023-03-02T15:32:39.990Z,43.90
2023-03-02T15:34:42.916Z,44.80
2023-03-02T15:36:45.501Z,50.72
2023-03-02T15:38:50.511Z,45.85
2023-03-02T15:40:53.399Z,46.35
2023-03-02T15:42:56.084Z,46.97
2023-03-02T15:45:00.154Z,41.28
2023-03-02T15:47:03.370Z,49.45
2023-03-02T15:49:06.036Z,46.78
2023-03-02T15:51:09.726Z,46.17
2023-03-02T15:53:12.280Z,47.55
2023-03-02T15:55:15.545Z,44.67
2023-03-02T15:57:18.627Z,56.83
2023-03-02T15:59:21.849Z,55.38
2023-03-02T16:01:25.791Z,46.10
2023-03-02T16:03:28.498Z,53.33
2023-03-02T16:05:33.226Z,48.15
2023-03-02T16:07:37.187Z,52.22
2023-03-02T16:09:39.830Z,48.90
2023-03-02T16:11:42.438Z,48.25
2023-03-02T16:13:45.002Z,47.00
2023-03-02T16:15:47.589Z,51.00
2023-03-02T16:17:51.453Z,48.10
2023-03-02T16:19:54.005Z,49.60
2023-03-02T16:21:56.583Z,54.35
2023-03-02T16:24:03.790Z,48.67
2023-03-02T16:26:10.295Z,55.47
2023-03-02T16:28:13.129Z,58.47
2023-03-02T16:30:16.481Z,49.40
2023-03-02T16:32:21.964Z,50.38
2023-03-02T16:34:25.931Z,56.50
2023-03-02T16:36:28.532Z,50.10
2023-03-02T16:38:31.144Z,47.47
2023-03-02T16:40:34.296Z,51.55
2023-03-02T16:42:36.942Z,57.67
2023-03-02T16:44:39.792Z,55.60
2023-03-02T16:46:43.369Z,55.72
2023-03-02T16:48:47.151Z,57.72
2023-03-02T16:50:57.715Z,54.78
2023-03-02T16:53:00.687Z,59.08
2023-03-02T16:55:03.707Z,56.85
2023-03-02T16:57:06.317Z,56.78
2023-03-02T16:59:08.864Z,58.92
2023-03-02T17:01:13.449Z,60.08
2023-03-02T17:03:16.295Z,51.22
2023-03-02T17:05:21.404Z,59.78
2023-03-02T17:07:25.369Z,51.90
2023-03-02T17:09:28.264Z,58.88
2023-03-02T17:11:31.819Z,56.45
2023-03-02T17:13:34.521Z,53.00
2023-03-02T17:15:37.127Z,54.17
2023-03-02T17:17:39.852Z,48.03
2023-03-02T17:19:42.402Z,49.30
2023-03-02T17:21:44.965Z,53.17
2023-03-02T17:23:49.302Z,56.70
2023-03-02T17:25:51.947Z,63.00
2023-03-02T17:27:54.554Z,57.40
2023-03-02T17:29:57.106Z,57.65
2023-03-02T17:31:59.786Z,53.22
2023-03-02T17:34:04.649Z,57.10
2023-03-02T17:36:09.681Z,57.40
2023-03-02T17:38:12.253Z,60.42
2023-03-02T17:40:17.478Z,59.70
2023-03-02T17:42:20.466Z,59.35
2023-03-02T17:44:23.128Z,53.75
2023-03-02T17:46:27.603Z,54.90
2023-03-02T17:48:30.276Z,60.35
2023-03-02T17:50:32.896Z,60.65
2023-03-02T17:52:35.451Z,55.33
2023-03-02T17:54:38.007Z,55.40
2023-03-02T17:56:42.461Z,57.65
2023-03-02T17:58:45.576Z,63.08
2023-03-02T18:00:48.181Z,63.75
2023-03-02T18:02:51.562Z,67.03
2023-03-02T18:04:54.172Z,76.07
2023-03-02T18:06:56.804Z,63.05
2023-03-02T18:08:59.370Z,67.72
2023-03-02T18:11:01.966Z,65.80
2023-03-02T18:13:05.933Z,75.22
2023-03-02T18:15:09.402Z,71.65
2023-03-02T18:17:12.452Z,69.20
2023-03-02T18:19:15.027Z,65.60
2023-03-02T18:21:17.917Z,70.10
2023-03-02T18:23:21.425Z,69.38
2023-03-02T18:25:24.294Z,71.85
2023-03-02T18:27:27.029Z,72.18
2023-03-02T18:29:30.968Z,66.75
2023-03-02T18:31:34.441Z,69.55
2023-03-02T18:33:37.067Z,69.75
2023-03-02T18:35:39.983Z,73.82
2023-03-02T18:37:43.059Z,65.15
2023-03-02T18:39:45.786Z,65.57
2023-03-02T18:41:48.477Z,69.00
2023-03-02T18:43:51.893Z,63.92
2023-03-02T18:45:56.872Z,71.35
2023-03-02T18:48:00.982Z,69.70
2023-03-02T18:50:05.362Z,77.28
2023-03-02T18:52:09.775Z,71.93
2023-03-02T18:54:12.628Z,75.82
2023-03-02T18:56:15.659Z,71.78
2023-03-02T18:58:20.733Z,77.68
2023-03-02T19:00:28.225Z,76.45
2023-03-02T19:02:32.255Z,76.53
2023-03-02T19:04:35.256Z,74.82
2023-03-02T19:06:37.856Z,75.55
2023-03-02T19:08:40.916Z,72.22
2023-03-02T19:10:43.496Z,66.75
2023-03-02T19:12:46.321Z,75.18
2023-03-02T19:14:48.931Z,75.90
2023-03-02T19:16:51.818Z,72.47
2023-03-02T19:18:55.872Z,69.63
2023-03-02T19:20:58.612Z,76.53
2023-03-02T19:23:01.696Z,74.13
2023-03-02T19:25:04.694Z,77.20
2023-03-02T19:27:07.337Z,73.72
2023-03-02T19:29:09.926Z,79.53
2023-03-02T19:31:13.789Z,75.65
2023-03-02T19:33:16.585Z,75.07
2023-03-02T19:35:21.873Z,74.57
2023-03-02T19:37:24.478Z,81.68
2023-03-02T19:39:27.228Z,78.55
2023-03-02T19:41:29.894Z,82.55
2023-03-02T19:43:32.956Z,82.15
2023-03-02T19:45:36.232Z,77.47
2023-03-02T19:47:39.002Z,73.38
2023-03-02T19:49:41.602Z,74.03
2023-03-02T19:51:45.509Z,67.70
2023-03-02T19:53:48.114Z,79.47
2023-03-02T19:55:51.440Z,73.85
2023-03-02T19:58:01.014Z,80.97
2023-03-02T20:00:03.930Z,74.45
2023-03-02T20:02:06.546Z,79.22
2023-03-02T20:04:09.305Z,76.28
2023-03-02T20:06:11.901Z,77.30
2023-03-02T20:08:16.839Z,83.10
2023-03-02T20:10:31.117Z,74.95
2023-03-02T20:12:34.019Z,77.75
2023-03-02T20:14:38.520Z,79.75
2023-03-02T20:16:41.320Z,80.40
2023-03-02T20:18:45.538Z,76.38
2023-03-02T20:20:48.572Z,75.20
2023-03-02T20:22:51.270Z,85.53
2023-03-02T20:24:55.194Z,77.45
2023-03-02T20:26:57.846Z,79.72
2023-03-02T20:29:03.633Z,80.03
2023-03-02T20:31:11.920Z,77.45
2023-03-02T20:33:16.069Z,85.72
2023-03-02T20:35:18.870Z,74.35
2023-03-02T20:37:22.559Z,78.78
2023-03-02T20:39:28.382Z,69.82
2023-03-02T20:41:32.727Z,84.25
2023-03-02T20:43:35.394Z,73.50
2023-03-02T20:45:38.116Z,73.47
2023-03-02T20:47:40.898Z,80.72
2023-03-02T20:49:43.578Z,73.70
2023-03-02T20:51:52.718Z,83.13
2023-03-02T20:53:55.580Z,75.75
2023-03-02T20:55:58.262Z,72.18
2023-03-02T20:58:05.326Z,77.10
2023-03-02T21:00:11.566Z,80.53
2023-03-02T21:02:14.918Z,76.88
2023-03-02T21:04:17.877Z,82.90
2023-03-02T21:06:20.591Z,76.82
2023-03-02T21:08:23.222Z,80.80
2023-03-02T21:10:29.398Z,85.50
2023-03-02T21:12:33.139Z,77.47
2023-03-02T21:14:37.196Z,82.28
2023-03-02T21:16:40.045Z,84.55
2023-03-02T21:18:42.655Z,85.97
2023-03-02T21:20:45.355Z,79.07
2023-03-02T21:22:48.096Z,82.95
2023-03-02T21:24:52.759Z,78.38
2023-03-02T21:26:55.804Z,84.20
2023-03-02T21:28:58.412Z,77.70
2023-03-02T21:31:02.387Z,80.20
2023-03-02T21:33:05.150Z,80.97
2023-03-02T21:35:08.080Z,81.05
2023-03-02T21:37:10.691Z,78.88
2023-03-02T21:39:14.009Z,79.20
2023-03-02T21:41:17.267Z,83.03
2023-03-02T21:43:20.144Z,84.32
2023-03-02T21:45:23.034Z,76.45
2023-03-02T21:47:26.931Z,86.90
2023-03-02T21:49:29.540Z,79.57
2023-03-02T21:51:32.592Z,95.88
2023-03-02T21:53:35.332Z,81.45
2023-03-02T21:55:38.171Z,86.95
2023-03-02T21:57:41.173Z,77.75
2023-03-02T21:59:44.004Z,87.63
2023-03-02T22:01:46.610Z,86.40
2023-03-02T22:03:50.967Z,81.95
2023-03-02T22:05:53.657Z,83.82
2023-03-02T22:07:56.268Z,87.70
2023-03-02T22:09:58.997Z,81.63
2023-03-02T22:12:01.558Z,85.75
2023-03-02T22:14:12.173Z,80.70
2023-03-02T22:16:16.719Z,86.45
2023-03-02T22:18:22.311Z,83.18
2023-03-02T22:20:26.420Z,84.70
2023-03-02T22:22:30.848Z,78.80
2023-03-02T22:24:34.813Z,74.07
2023-03-02T22:26:40.110Z,88.03
2023-03-02T22:28:42.768Z,86.13
2023-03-02T22:30:45.633Z,82.00
2023-03-02T22:32:48.821Z,83.95
2023-03-02T22:34:53.369Z,87.13
2023-03-02T22:37:07.387Z,92.82
2023-03-02T22:39:16.439Z,79.68
2023-03-02T22:41:20.704Z,73.10
2023-03-02T22:43:26.357Z,79.00
2023-03-02T22:45:29.984Z,79.97
2023-03-02T22:47:33.176Z,78.95
2023-03-02T22:49:35.737Z,80.57
2023-03-02T22:51:38.318Z,76.97
2023-03-02T22:53:47.269Z,84.05
2023-03-02T22:55:49.907Z,79.03
2023-03-02T22:57:52.484Z,78.13
2023-03-02T23:00:21.212Z,77.00
2023-03-02T23:02:26.138Z,91.35
2023-03-02T23:04:32.511Z,81.82
2023-03-02T23:06:42.352Z,78.75
2023-03-02T23:08:46.324Z,88.97
2023-03-02T23:10:49.600Z,74.93
2023-03-02T23:12:52.975Z,81.72
2023-03-02T23:14:57.210Z,83.97
2023-03-02T23:17:01.819Z,89.45
2023-03-02T23:19:05.543Z,85.30
2023-03-02T23:21:16.187Z,83.40
2023-03-02T23:23:18.857Z,80.82
2023-03-02T23:25:22.747Z,76.57
2023-03-02T23:27:25.848Z,81.03
2023-03-02T23:29:28.430Z,74.60
2023-03-02T23:31:31.367Z,78.65
2023-03-02T23:33:34.861Z,74.13
2023-03-02T23:35:37.483Z,73.30
2023-03-02T23:37:40.674Z,81.00
2023-03-02T23:39:45.919Z,85.25
2023-03-02T23:41:50.049Z,81.45
2023-03-02T23:43:52.695Z,88.22
2023-03-02T23:45:56.096Z,86.57
2023-03-02T23:47:59.077Z,80.68
2023-03-02T23:50:01.659Z,87.45
2023-03-02T23:52:05.591Z,84.68
2023-03-02T23:54:08.170Z,86.75
2023-03-02T23:56:11.328Z,84.68
2023-03-02T23:58:15.373Z,82.35
